createdAt,value
2023-05-14T00:01:43.431Z,7.17
2023-05-14T00:04:11.384Z,7.20
2023-05-14T00:06:40.704Z,7.13
2023-05-14T00:09:08.625Z,7.17
2023-05-14T00:11:36.540Z,7.33
2023-05-14T00:14:04.382Z,7.17
2023-05-14T00:16:32.368Z,7.80
2023-05-14T00:19:00.351Z,6.93
2023-05-14T00:21:28.339Z,7.33
2023-05-14T00:23:57.660Z,7.50
2023-05-14T00:26:25.586Z,7.70
2023-05-14T00:28:53.414Z,7.40
2023-05-14T00:31:21.358Z,7.47
2023-05-14T00:33:49.248Z,8.10
2023-05-14T00:36:17.121Z,7.63
2023-05-14T00:38:45.017Z,7.50
2023-05-14T00:41:14.371Z,7.27
2023-05-14T00:43:42.244Z,7.60
2023-05-14T00:46:10.100Z,7.80
2023-05-14T00:48:38.014Z,7.37
2023-05-14T00:51:06.556Z,8.07
2023-05-14T00:53:34.401Z,7.53
2023-05-14T00:56:02.291Z,8.00
2023-05-14T00:58:31.536Z,8.23
2023-05-14T01:00:59.421Z,7.97
2023-05-14T01:03:27.599Z,8.03
2023-05-14T01:06:02.371Z,7.73
2023-05-14T01:08:34.064Z,8.77
2023-05-14T01:11:05.305Z,8.30
2023-05-14T01:13:45.380Z,7.30
2023-05-14T01:16:14.568Z,7.90
2023-05-14T01:18:42.765Z,7.50
2023-05-14T01:21:26.002Z,7.93
2023-05-14T01:23:53.959Z,7.83
2023-05-14T01:26:21.945Z,8.13
2023-05-14T01:28:49.820Z,8.07
2023-05-14T01:31:20.175Z,8.30
2023-05-14T01:33:48.077Z,8.13
2023-05-14T01:36:15.966Z,8.97
2023-05-14T01:38:47.225Z,9.07
2023-05-14T01:41:15.138Z,8.30
2023-05-14T01:43:43.075Z,8.40
2023-05-14T01:46:10.944Z,8.57
2023-05-14T01:48:38.854Z,8.30
2023-05-14T01:51:06.743Z,7.43
2023-05-14T01:53:34.947Z,7.67
2023-05-14T01:56:04.325Z,7.87
2023-05-14T01:58:32.202Z,8.00
2023-05-14T02:01:00.156Z,8.33
2023-05-14T02:03:28.071Z,8.20
2023-05-14T02:05:55.971Z,8.37
2023-05-14T02:08:23.822Z,8.97
2023-05-14T02:10:51.704Z,9.10
2023-05-14T02:13:20.929Z,8.33
2023-05-14T02:15:48.819Z,8.03
2023-05-14T02:18:16.748Z,9.50
2023-05-14T02:20:45.085Z,8.77
2023-05-14T02:23:12.923Z,9.70
2023-05-14T02:25:40.784Z,11.53
2023-05-14T02:28:08.668Z,11.50
2023-05-14T02:30:37.978Z,11.17
2023-05-14T02:33:06.003Z,12.20
2023-05-14T02:35:33.912Z,11.33
2023-05-14T02:38:01.789Z,12.50
2023-05-14T02:40:29.684Z,12.47
2023-05-14T02:42:57.524Z,12.17
2023-05-14T02:45:25.368Z,11.60
2023-05-14T02:47:54.624Z,11.50
2023-05-14T02:50:22.755Z,11.73
2023-05-14T02:52:50.741Z,11.90
2023-05-14T02:55:18.737Z,12.07
2023-05-14T02:57:46.744Z,11.60
2023-05-14T03:00:15.191Z,11.67
2023-05-14T03:02:43.669Z,11.97
2023-05-14T03:05:13.300Z,12.63
2023-05-14T03:07:41.131Z,11.43
2023-05-14T03:10:09.821Z,12.10
2023-05-14T03:12:37.689Z,12.83
2023-05-14T03:15:06.006Z,11.83
2023-05-14T03:17:33.886Z,11.57
2023-05-14T03:20:01.861Z,12.03
2023-05-14T03:22:31.184Z,12.60
2023-05-14T03:24:59.019Z,11.13
2023-05-14T03:27:26.938Z,12.67
2023-05-14T03:29:54.779Z,11.63
2023-05-14T03:32:22.720Z,11.00
2023-05-14T03:34:50.630Z,12.33
2023-05-14T03:37:18.545Z,11.17
2023-05-14T03:39:47.944Z,11.67
2023-05-14T03:42:15.802Z,11.83
2023-05-14T03:44:43.704Z,12.53
2023-05-14T03:47:11.679Z,12.30
2023-05-14T03:49:40.041Z,13.07
2023-05-14T03:52:07.919Z,12.40
2023-05-14T03:54:35.835Z,12.80
2023-05-14T03:57:05.683Z,12.60
2023-05-14T03:59:33.561Z,12.30
2023-05-14T04:02:01.560Z,12.77
2023-05-14T04:04:29.450Z,12.93
2023-05-14T04:06:57.590Z,12.53
2023-05-14T04:09:25.477Z,13.07
2023-05-14T04:11:53.400Z,13.63
2023-05-14T04:14:22.640Z,13.03
2023-05-14T04:16:50.565Z,13.17
2023-05-14T04:19:18.710Z,13.53
2023-05-14T04:21:46.662Z,13.50
2023-05-14T04:24:14.571Z,14.20
2023-05-14T04:26:42.435Z,14.10
2023-05-14T04:29:10.351Z,13.30
2023-05-14T04:31:39.692Z,14.73
2023-05-14T04:34:07.702Z,14.60
2023-05-14T04:36:35.727Z,15.07
2023-05-14T04:39:04.148Z,14.60
2023-05-14T04:41:32.053Z,14.53
2023-05-14T04:44:01.278Z,14.47
2023-05-14T04:46:29.326Z,15.53
2023-05-14T04:48:58.793Z,13.90
2023-05-14T04:51:26.916Z,15.23
2023-05-14T04:53:54.790Z,15.90
2023-05-14T04:56:22.897Z,14.00
2023-05-14T04:58:50.750Z,14.70
2023-05-14T05:01:18.816Z,16.40
2023-05-14T05:03:46.846Z,18.17
2023-05-14T05:06:16.179Z,18.27
2023-05-14T05:08:44.038Z,17.60
2023-05-14T05:11:11.911Z,15.43
2023-05-14T05:13:39.830Z,15.00
2023-05-14T05:16:08.130Z,14.27
2023-05-14T05:18:36.120Z,13.50
2023-05-14T05:21:04.170Z,14.90
2023-05-14T05:23:33.432Z,15.07
2023-05-14T05:26:01.342Z,15.20
2023-05-14T05:28:29.237Z,15.20
2023-05-14T05:30:57.223Z,15.53
2023-05-14T05:33:25.113Z,14.40
2023-05-14T05:35:52.975Z,14.57
2023-05-14T05:38:20.868Z,13.07
2023-05-14T05:40:50.076Z,13.70
2023-05-14T05:43:18.050Z,13.13
2023-05-14T05:45:46.586Z,14.03
2023-05-14T05:48:14.481Z,13.77
2023-05-14T05:50:44.330Z,13.33
2023-05-14T05:53:12.534Z,13.47
2023-05-14T05:55:40.420Z,12.73
2023-05-14T05:58:09.642Z,10.73
2023-05-14T06:00:37.508Z,11.57
2023-05-14T06:03:05.377Z,11.27
2023-05-14T06:05:33.373Z,11.63
2023-05-14T06:08:01.311Z,12.20
2023-05-14T06:10:29.252Z,12.33
2023-05-14T06:12:57.236Z,12.33
2023-05-14T06:15:28.266Z,9.90
2023-05-14T06:17:56.288Z,8.97
2023-05-14T06:20:24.565Z,10.03
2023-05-14T06:22:57.815Z,10.63
2023-05-14T06:25:25.785Z,10.27
2023-05-14T06:27:56.719Z,10.47
2023-05-14T06:30:27.243Z,9.90
2023-05-14T06:32:55.243Z,9.50
2023-05-14T06:35:25.972Z,10.13
2023-05-14T06:38:02.816Z,10.87
2023-05-14T06:40:30.726Z,10.73
2023-05-14T06:42:58.911Z,10.73
2023-05-14T06:45:28.397Z,10.23
2023-05-14T06:47:56.602Z,10.00
2023-05-14T06:50:24.987Z,11.17
2023-05-14T06:52:53.052Z,10.53
2023-05-14T06:55:21.159Z,9.40
2023-05-14T06:57:49.020Z,9.80
2023-05-14T07:00:18.255Z,8.70
2023-05-14T07:02:47.645Z,8.90
2023-05-14T07:05:15.536Z,8.90
2023-05-14T07:07:43.549Z,10.20
2023-05-14T07:10:11.643Z,9.30
2023-05-14T07:12:39.523Z,8.67
2023-05-14T07:15:08.974Z,8.87
2023-05-14T07:17:37.778Z,9.47
2023-05-14T07:20:08.537Z,9.97
2023-05-14T07:22:36.424Z,9.97
2023-05-14T07:25:04.397Z,10.00
2023-05-14T07:27:32.261Z,8.33
2023-05-14T07:30:00.428Z,7.67
2023-05-14T07:32:28.355Z,8.30
2023-05-14T07:34:56.317Z,7.63
2023-05-14T07:37:26.059Z,8.97
2023-05-14T07:39:54.103Z,7.40
2023-05-14T07:42:34.622Z,7.43
2023-05-14T07:45:03.691Z,7.70
2023-05-14T07:47:31.729Z,8.40
2023-05-14T07:49:59.920Z,6.57
2023-05-14T07:52:29.269Z,7.50
2023-05-14T07:54:57.202Z,7.00
2023-05-14T07:57:25.105Z,7.20
2023-05-14T07:59:52.998Z,7.03
2023-05-14T08:02:21.054Z,6.13
2023-05-14T08:04:49.007Z,6.60
2023-05-14T08:07:17.285Z,7.10
2023-05-14T08:09:46.752Z,7.30
2023-05-14T08:12:16.072Z,7.07
2023-05-14T08:14:44.033Z,6.23
2023-05-14T08:17:11.990Z,6.60
2023-05-14T08:19:39.950Z,6.90
2023-05-14T08:22:07.859Z,6.80
2023-05-14T08:24:35.905Z,6.13
2023-05-14T08:27:05.606Z,5.83
2023-05-14T08:29:33.457Z,5.93
2023-05-14T08:32:08.438Z,6.40
2023-05-14T08:34:39.993Z,5.80
2023-05-14T08:37:07.862Z,6.33
2023-05-14T08:39:35.744Z,5.43
2023-05-14T08:42:05.133Z,5.43
2023-05-14T08:44:34.602Z,4.60
2023-05-14T08:47:02.513Z,5.10
2023-05-14T08:49:34.599Z,4.87
2023-05-14T08:52:02.507Z,5.10
2023-05-14T08:54:32.560Z,4.90
2023-05-14T08:57:00.595Z,5.00
2023-05-14T08:59:29.875Z,4.97
2023-05-14T09:02:02.144Z,4.90
2023-05-14T09:04:31.365Z,4.90
2023-05-14T09:06:59.870Z,5.10
2023-05-14T09:09:28.037Z,4.97
2023-05-14T09:12:05.732Z,4.90
2023-05-14T09:14:35.000Z,4.80
2023-05-14T09:17:03.254Z,5.17
2023-05-14T09:19:31.117Z,4.53
2023-05-14T09:21:59.447Z,5.07
2023-05-14T09:24:29.264Z,4.97
2023-05-14T09:26:58.213Z,5.70
2023-05-14T09:29:26.361Z,5.23
2023-05-14T09:31:56.073Z,5.30
2023-05-14T09:34:25.392Z,5.33
2023-05-14T09:36:59.265Z,4.40
2023-05-14T09:39:27.153Z,4.30
2023-05-14T09:41:55.876Z,4.47
2023-05-14T09:44:23.836Z,5.00
2023-05-14T09:46:51.851Z,4.57
2023-05-14T09:49:21.181Z,4.93
2023-05-14T09:51:49.757Z,4.70
2023-05-14T09:54:17.660Z,4.27
2023-05-14T09:56:45.787Z,5.13
2023-05-14T09:59:13.661Z,4.60
2023-05-14T10:01:41.813Z,5.33
2023-05-14T10:04:09.920Z,4.50
2023-05-14T10:06:39.569Z,5.03
2023-05-14T10:09:12.223Z,5.20
2023-05-14T10:11:40.223Z,5.63
2023-05-14T10:14:09.597Z,5.20
2023-05-14T10:16:39.091Z,5.27
2023-05-14T10:19:09.701Z,5.60
2023-05-14T10:21:39.665Z,4.83
2023-05-14T10:24:09.030Z,4.90
2023-05-14T10:26:39.201Z,5.00
2023-05-14T10:29:07.187Z,4.73
2023-05-14T10:31:51.656Z,5.07
2023-05-14T10:34:42.597Z,4.90
2023-05-14T10:37:13.005Z,5.50
2023-05-14T10:39:45.335Z,5.13
2023-05-14T10:42:14.201Z,5.50
2023-05-14T10:44:47.343Z,5.67
2023-05-14T10:47:15.798Z,5.50
2023-05-14T10:49:44.192Z,5.50
2023-05-14T10:52:13.659Z,6.20
2023-05-14T10:54:42.012Z,6.37
2023-05-14T10:57:13.240Z,5.63
2023-05-14T10:59:43.442Z,6.00
2023-05-14T11:02:21.850Z,5.53
2023-05-14T11:05:00.290Z,5.27
2023-05-14T11:07:34.478Z,5.83
2023-05-14T11:10:04.551Z,5.10
2023-05-14T11:12:32.548Z,5.20
2023-05-14T11:15:01.104Z,5.43
2023-05-14T11:17:29.600Z,5.57
2023-05-14T11:19:57.660Z,5.20
2023-05-14T11:22:26.863Z,5.70
2023-05-14T11:24:56.167Z,5.70
2023-05-14T11:27:24.380Z,5.67
2023-05-14T11:29:52.249Z,5.10
2023-05-14T11:32:20.638Z,5.20
2023-05-14T11:34:48.585Z,5.32
2023-05-14T11:37:17.437Z,4.82
2023-05-14T11:39:49.124Z,4.53
2023-05-14T11:42:19.662Z,5.20
2023-05-14T11:44:49.021Z,4.40
2023-05-14T11:47:17.700Z,4.20
2023-05-14T11:49:45.820Z,4.55
2023-05-14T11:52:15.027Z,4.80
2023-05-14T11:54:43.679Z,5.43
2023-05-14T11:57:20.800Z,5.03
2023-05-14T11:59:50.089Z,4.78
2023-05-14T12:02:19.371Z,4.63
2023-05-14T12:04:51.348Z,5.10
2023-05-14T12:07:19.609Z,4.65
2023-05-14T12:09:49.801Z,5.35
2023-05-14T12:12:20.472Z,4.53
2023-05-14T12:14:50.320Z,4.80
2023-05-14T12:17:19.738Z,4.75
2023-05-14T12:19:48.887Z,5.28
2023-05-14T12:22:19.675Z,4.80
2023-05-14T12:24:54.302Z,5.70
2023-05-14T12:27:23.337Z,5.53
2023-05-14T12:29:53.522Z,5.15
2023-05-14T12:32:21.686Z,5.50
2023-05-14T12:34:49.559Z,5.78
2023-05-14T12:37:18.454Z,5.45
2023-05-14T12:39:46.628Z,5.53
2023-05-14T12:42:15.986Z,5.53
2023-05-14T12:44:43.912Z,5.47
2023-05-14T12:47:13.586Z,5.97
2023-05-14T12:49:41.573Z,5.80
2023-05-14T12:52:22.710Z,6.68
2023-05-14T12:54:57.562Z,6.45
2023-05-14T12:57:25.762Z,7.00
2023-05-14T12:59:55.302Z,5.93
2023-05-14T13:02:25.388Z,7.50
2023-05-14T13:04:53.587Z,6.80
2023-05-14T13:07:21.838Z,6.90
2023-05-14T13:09:50.021Z,5.90
2023-05-14T13:12:18.110Z,6.57
2023-05-14T13:14:46.639Z,6.87
2023-05-14T13:17:17.327Z,6.43
2023-05-14T13:19:46.788Z,8.10
2023-05-14T13:22:17.124Z,7.97
2023-05-14T13:24:45.048Z,7.33
2023-05-14T13:27:13.193Z,7.27
2023-05-14T13:29:41.465Z,7.03
2023-05-14T13:32:09.465Z,7.40
2023-05-14T13:34:37.594Z,6.43
2023-05-14T13:37:07.592Z,7.00
2023-05-14T13:39:35.725Z,7.50
2023-05-14T13:42:03.585Z,7.00
2023-05-14T13:44:31.472Z,6.90
2023-05-14T13:46:59.513Z,8.03
2023-05-14T13:49:27.505Z,7.77
2023-05-14T13:51:55.620Z,7.63
2023-05-14T13:54:25.011Z,7.80
2023-05-14T13:56:53.189Z,8.13
2023-05-14T13:59:21.381Z,8.33
2023-05-14T14:01:50.170Z,8.03
2023-05-14T14:04:18.205Z,8.30
2023-05-14T14:06:49.697Z,8.03
2023-05-14T14:09:17.563Z,8.60
2023-05-14T14:11:46.898Z,8.33
2023-05-14T14:14:14.747Z,7.87
2023-05-14T14:16:42.768Z,8.57
2023-05-14T14:19:10.923Z,7.70
2023-05-14T14:21:39.756Z,8.07
2023-05-14T14:24:08.146Z,7.53
2023-05-14T14:26:36.062Z,7.13
2023-05-14T14:29:05.361Z,6.90
2023-05-14T14:31:33.279Z,7.00
2023-05-14T14:34:01.186Z,7.83
2023-05-14T14:36:30.638Z,6.77
2023-05-14T14:38:59.417Z,8.30
2023-05-14T14:41:27.886Z,7.00
2023-05-14T14:43:55.784Z,7.57
2023-05-14T14:46:25.071Z,7.10
2023-05-14T14:48:53.104Z,6.23
2023-05-14T14:51:20.972Z,6.37
2023-05-14T14:53:48.883Z,7.67
2023-05-14T14:56:16.871Z,6.80
2023-05-14T14:58:45.724Z,7.57
2023-05-14T15:01:14.217Z,7.70
2023-05-14T15:03:48.437Z,6.77
2023-05-14T15:06:17.016Z,7.43
2023-05-14T15:08:45.350Z,6.73
2023-05-14T15:11:13.801Z,6.70
2023-05-14T15:13:42.977Z,6.60
2023-05-14T15:16:11.281Z,7.33
2023-05-14T15:18:39.266Z,6.40
2023-05-14T15:21:08.627Z,6.43
2023-05-14T15:23:39.044Z,6.40
2023-05-14T15:26:07.007Z,6.43
2023-05-14T15:28:34.898Z,6.50
2023-05-14T15:31:03.470Z,6.60
2023-05-14T15:33:31.425Z,6.37
2023-05-14T15:35:59.431Z,6.70
2023-05-14T15:38:28.864Z,7.00
2023-05-14T15:40:56.756Z,6.40
2023-05-14T15:43:24.608Z,6.70
2023-05-14T15:45:52.481Z,7.40
2023-05-14T15:48:21.431Z,7.13
2023-05-14T15:50:53.400Z,7.30
2023-05-14T15:53:21.557Z,7.20
2023-05-14T15:55:50.954Z,6.77
2023-05-14T15:58:18.867Z,6.60
2023-05-14T16:00:47.009Z,7.00
2023-05-14T16:03:15.038Z,6.97
2023-05-14T16:05:44.800Z,6.50
2023-05-14T16:08:13.065Z,6.20
2023-05-14T16:10:40.998Z,6.67
2023-05-14T16:13:10.269Z,6.37
2023-05-14T16:15:38.314Z,6.93
2023-05-14T16:18:08.410Z,6.50
2023-05-14T16:20:36.898Z,7.10
2023-05-14T16:23:05.170Z,6.80
2023-05-14T16:25:33.096Z,6.10
2023-05-14T16:28:01.306Z,7.60
2023-05-14T16:30:30.649Z,6.73
2023-05-14T16:32:58.569Z,6.80
2023-05-14T16:35:26.464Z,6.30
2023-05-14T16:37:54.958Z,7.00
2023-05-14T16:40:23.715Z,6.70
2023-05-14T16:42:52.272Z,7.03
2023-05-14T16:45:20.207Z,6.03
2023-05-14T16:47:49.696Z,5.80
2023-05-14T16:50:18.163Z,6.27
2023-05-14T16:52:46.107Z,6.63
2023-05-14T16:55:14.386Z,6.50
2023-05-14T16:57:43.961Z,6.40
2023-05-14T17:00:14.385Z,6.57
2023-05-14T17:02:42.664Z,6.53
2023-05-14T17:05:12.036Z,6.23
2023-05-14T17:07:40.272Z,6.00
2023-05-14T17:10:08.974Z,6.43
2023-05-14T17:12:36.890Z,6.10
2023-05-14T17:15:05.834Z,5.83
2023-05-14T17:17:34.040Z,5.67
2023-05-14T17:20:03.036Z,5.27
2023-05-14T17:22:32.460Z,5.20
2023-05-14T17:25:00.505Z,5.73
2023-05-14T17:27:33.376Z,5.67
2023-05-14T17:30:01.443Z,5.27
2023-05-14T17:32:29.760Z,5.47
2023-05-14T17:34:57.736Z,5.43
2023-05-14T17:37:25.788Z,5.63
2023-05-14T17:39:55.077Z,5.37
2023-05-14T17:42:23.001Z,5.23
2023-05-14T17:44:50.861Z,5.57
2023-05-14T17:47:20.670Z,5.30
2023-05-14T17:49:49.130Z,4.97
2023-05-14T17:52:17.043Z,5.30
2023-05-14T17:54:44.893Z,5.17
2023-05-14T17:57:14.170Z,4.60
2023-05-14T17:59:42.565Z,4.90
2023-05-14T18:02:10.519Z,5.37
2023-05-14T18:04:38.454Z,5.00
2023-05-14T18:07:06.953Z,5.17
2023-05-14T18:09:35.179Z,5.30
2023-05-14T18:12:03.021Z,4.90
2023-05-14T18:14:32.442Z,6.43
2023-05-14T18:17:00.473Z,3.50
2023-05-14T18:19:28.421Z,2.70
2023-05-14T18:21:56.354Z,2.33
2023-05-14T18:24:24.262Z,1.90
2023-05-14T18:26:52.122Z,2.63
2023-05-14T18:29:20.095Z,3.40
2023-05-14T18:31:49.351Z,3.77
2023-05-14T18:34:17.562Z,3.93
2023-05-14T18:36:45.461Z,3.90
2023-05-14T18:39:13.476Z,3.50
2023-05-14T18:41:41.375Z,3.70
2023-05-14T18:44:09.231Z,3.20
2023-05-14T18:46:37.501Z,3.63
2023-05-14T18:49:06.939Z,3.60
2023-05-14T18:51:34.865Z,3.37
2023-05-14T18:54:02.742Z,3.30
2023-05-14T18:56:30.648Z,3.70
2023-05-14T18:58:58.522Z,3.60
2023-05-14T19:01:26.433Z,3.13
2023-05-14T19:03:54.580Z,3.70
2023-05-14T19:06:23.933Z,3.10
2023-05-14T19:08:52.092Z,3.80
2023-05-14T19:11:20.071Z,3.67
2023-05-14T19:13:49.736Z,3.70
2023-05-14T19:16:17.653Z,3.27
2023-05-14T19:18:45.731Z,3.20
2023-05-14T19:21:15.066Z,3.30
2023-05-14T19:23:46.312Z,3.47
2023-05-14T19:26:14.741Z,3.30
2023-05-14T19:28:43.297Z,2.80
2023-05-14T19:31:11.758Z,3.10
2023-05-14T19:33:40.351Z,2.77
2023-05-14T19:36:08.998Z,2.90
2023-05-14T19:38:37.828Z,2.67
2023-05-14T19:41:08.017Z,2.70
2023-05-14T19:43:36.554Z,3.00
2023-05-14T19:46:06.301Z,2.27
2023-05-14T19:48:35.067Z,2.10
2023-05-14T19:51:03.736Z,2.33
2023-05-14T19:53:32.476Z,2.20
2023-05-14T19:56:02.210Z,2.60
2023-05-14T19:58:32.364Z,4.50
2023-05-14T20:01:01.110Z,3.50
2023-05-14T20:03:30.120Z,3.40
2023-05-14T20:05:59.470Z,3.20
2023-05-14T20:08:29.228Z,3.23
2023-05-14T20:10:57.793Z,3.33
2023-05-14T20:13:26.334Z,3.30
2023-05-14T20:15:56.494Z,3.20
2023-05-14T20:18:25.171Z,3.40
2023-05-14T20:20:54.913Z,3.67
2023-05-14T20:23:23.693Z,3.63
2023-05-14T20:25:53.226Z,2.70
2023-05-14T20:28:22.294Z,3.10
2023-05-14T20:30:50.957Z,3.10
2023-05-14T20:33:21.743Z,3.37
2023-05-14T20:35:50.364Z,3.20
2023-05-14T20:38:19.383Z,3.70
2023-05-14T20:40:48.428Z,3.30
2023-05-14T20:43:17.020Z,3.13
2023-05-14T20:45:46.058Z,3.17
2023-05-14T20:48:16.557Z,3.63
2023-05-14T20:50:46.553Z,3.20
2023-05-14T20:53:15.752Z,3.03
2023-05-14T20:55:45.057Z,2.80
2023-05-14T20:58:13.710Z,3.30
2023-05-14T21:00:43.517Z,2.93
2023-05-14T21:03:12.361Z,3.13
2023-05-14T21:05:42.139Z,3.23
2023-05-14T21:08:12.364Z,3.13
2023-05-14T21:10:40.900Z,3.30
2023-05-14T21:13:09.551Z,3.10
2023-05-14T21:15:38.176Z,3.47
2023-05-14T21:18:06.798Z,3.80
2023-05-14T21:20:34.704Z,3.30
2023-05-14T21:23:02.568Z,2.90
2023-05-14T21:25:31.874Z,2.97
2023-05-14T21:27:59.760Z,2.73
2023-05-14T21:30:27.679Z,3.03
2023-05-14T21:32:55.738Z,2.70
2023-05-14T21:35:23.862Z,2.90
2023-05-14T21:37:52.261Z,2.90
2023-05-14T21:40:20.291Z,3.30
2023-05-14T21:42:49.598Z,3.43
2023-05-14T21:45:17.762Z,2.97
2023-05-14T21:47:45.714Z,3.10
2023-05-14T21:50:13.846Z,3.20
2023-05-14T21:52:41.792Z,3.40
2023-05-14T21:55:10.340Z,2.70
2023-05-14T21:57:38.277Z,2.80
2023-05-14T22:00:12.966Z,2.20
2023-05-14T22:02:41.020Z,2.37
2023-05-14T22:05:09.354Z,2.23
2023-05-14T22:07:44.443Z,2.10
2023-05-14T22:10:14.370Z,1.70
2023-05-14T22:12:42.992Z,1.83
2023-05-14T22:15:12.774Z,1.70
2023-05-14T22:17:40.996Z,1.90
2023-05-14T22:20:10.152Z,3.17
2023-05-14T22:22:38.372Z,1.90
2023-05-14T22:25:07.361Z,1.40
2023-05-14T22:27:35.262Z,1.53
2023-05-14T22:30:03.672Z,1.40
2023-05-14T22:32:32.897Z,1.50
2023-05-14T22:35:00.778Z,1.70
2023-05-14T22:37:28.716Z,1.50
2023-05-14T22:39:56.658Z,1.57
2023-05-14T22:42:24.565Z,1.60
2023-05-14T22:44:52.603Z,1.60
2023-05-14T22:47:20.585Z,2.00
2023-05-14T22:49:49.855Z,2.50
2023-05-14T22:52:18.862Z,2.43
2023-05-14T22:54:46.786Z,2.40
2023-05-14T22:57:14.701Z,2.30
2023-05-14T22:59:43.192Z,2.50
2023-05-14T23:02:11.105Z,2.20
2023-05-14T23:04:39.225Z,1.87
2023-05-14T23:07:08.983Z,2.10
2023-05-14T23:09:36.860Z,2.10
2023-05-14T23:12:05.550Z,2.43
2023-05-14T23:14:33.410Z,1.97
2023-05-14T23:17:01.266Z,2.33
2023-05-14T23:19:29.178Z,2.03
2023-05-14T23:21:58.307Z,1.93
2023-05-14T23:24:27.519Z,1.90
2023-05-14T23:26:55.798Z,2.00
2023-05-14T23:29:23.667Z,2.10
2023-05-14T23:31:51.681Z,1.97
2023-05-14T23:34:19.576Z,1.60
2023-05-14T23:36:47.440Z,1.90
2023-05-14T23:39:16.294Z,1.93
2023-05-14T23:41:45.618Z,2.00
2023-05-14T23:44:13.505Z,2.23
2023-05-14T23:46:41.394Z,1.70
2023-05-14T23:49:09.281Z,1.80
2023-05-14T23:51:37.836Z,2.00
2023-05-14T23:54:05.796Z,1.83
2023-05-14T23:56:34.331Z,1.77
2023-05-14T23:59:03.675Z,2.07
